createdAt,value
2019-04-06T00:00:13.097Z,99589.93
2019-04-06T00:02:41.737Z,99581.08
2019-04-06T00:05:11.099Z,99578.07
2019-04-06T00:07:39.678Z,99577.93
2019-04-06T00:10:08.648Z,99579.41
2019-04-06T00:12:37.401Z,99578.19
2019-04-06T00:15:07.723Z,99574.08
2019-04-06T00:17:36.290Z,99571.27
2019-04-06T00:20:06.607Z,99561.93
2019-04-06T00:22:35.190Z,99566.30
2019-04-06T00:25:04.786Z,99568.97
2019-04-06T00:27:33.383Z,99567.01
2019-04-06T00:30:01.990Z,99563.01
2019-04-06T00:32:38.196Z,99564.71
2019-04-06T00:35:07.005Z,99559.37
2019-04-06T00:37:36.299Z,99569.05
2019-04-06T00:40:05.649Z,99564.56
2019-04-06T00:42:34.290Z,99551.37
2019-04-06T00:45:03.255Z,99548.09
2019-04-06T00:47:31.980Z,99554.61
2019-04-06T00:50:00.568Z,99551.09
2019-04-06T00:52:29.254Z,99543.72
2019-04-06T00:54:57.948Z,99548.09
2019-04-06T00:57:26.546Z,99545.53
2019-04-06T00:59:55.169Z,99546.75
2019-04-06T01:02:23.853Z,99549.75
2019-04-06T01:04:52.416Z,99549.41
2019-04-06T01:07:23.172Z,99550.27
2019-04-06T01:09:51.729Z,99546.61
2019-04-06T01:12:20.438Z,99534.49
2019-04-06T01:14:49.390Z,99538.49
2019-04-06T01:17:18.052Z,99534.49
2019-04-06T01:19:47.025Z,99537.50
2019-04-06T01:22:15.763Z,99534.83
2019-04-06T01:24:44.419Z,99537.38
2019-04-06T01:27:13.045Z,99539.56
2019-04-06T01:29:41.616Z,99537.23
2019-04-06T01:32:10.185Z,99541.61
2019-04-06T01:34:38.909Z,99544.27
2019-04-06T01:37:07.484Z,99534.80
2019-04-06T01:39:36.065Z,99531.79
2019-04-06T01:42:04.708Z,99543.65
2019-04-06T01:44:33.347Z,99542.80
2019-04-06T01:47:01.927Z,99533.98
2019-04-06T01:49:30.503Z,99548.12
2019-04-06T01:51:59.148Z,99544.50
2019-04-06T01:54:27.727Z,99537.34
2019-04-06T01:56:56.576Z,99538.53
2019-04-06T01:59:25.179Z,99540.34
2019-04-06T02:01:55.414Z,99538.68
2019-04-06T02:04:24.033Z,99537.69
2019-04-06T02:06:52.536Z,99536.02
2019-04-06T02:09:21.278Z,99533.68
2019-04-06T02:11:49.861Z,99530.42
2019-04-06T02:14:18.522Z,99532.61
2019-04-06T02:16:47.543Z,99526.90
2019-04-06T02:19:16.177Z,99527.27
2019-04-06T02:21:44.881Z,99531.13
2019-04-06T02:24:13.435Z,99530.27
2019-04-06T02:26:42.014Z,99528.45
2019-04-06T02:29:10.778Z,99532.45
2019-04-06T02:31:56.022Z,99532.09
2019-04-06T02:34:29.373Z,99526.27
2019-04-06T02:37:02.515Z,99534.76
2019-04-06T02:39:38.760Z,99530.42
2019-04-06T02:42:18.309Z,99540.09
2019-04-06T02:44:46.946Z,99533.42
2019-04-06T02:47:15.763Z,99544.61
2019-04-06T02:49:44.657Z,99538.42
2019-04-06T02:52:13.275Z,99537.42
2019-04-06T02:54:41.888Z,99533.42
2019-04-06T02:57:10.508Z,99531.75
2019-04-06T02:59:39.340Z,99533.09
2019-04-06T03:02:08.288Z,99533.09
2019-04-06T03:04:36.872Z,99539.27
2019-04-06T03:07:05.699Z,99529.09
2019-04-06T03:09:34.396Z,99533.94
2019-04-06T03:12:03.059Z,99528.09
2019-04-06T03:14:32.038Z,99534.76
2019-04-06T03:17:00.748Z,99532.09
2019-04-06T03:19:29.445Z,99521.42
2019-04-06T03:21:58.046Z,99518.27
2019-04-06T03:24:26.914Z,99517.79
2019-04-06T03:27:01.970Z,99520.45
2019-04-06T03:29:26.095Z,99524.45
2019-04-06T03:31:54.713Z,99519.60
2019-04-06T03:34:23.490Z,99514.75
2019-04-06T03:36:52.288Z,99514.27
2019-04-06T03:39:20.858Z,99503.75
2019-04-06T03:41:49.511Z,99509.67
2019-04-06T03:44:18.745Z,99509.20
2019-04-06T03:46:47.418Z,99506.67
2019-04-06T03:49:16.169Z,99506.30
2019-04-06T03:51:45.007Z,99503.41
2019-04-06T03:54:13.635Z,99507.83
2019-04-06T03:56:42.430Z,99507.60
2019-04-06T03:59:11.226Z,99503.01
2019-04-06T04:01:40.849Z,99507.64
2019-04-06T04:04:09.403Z,99513.94
2019-04-06T04:06:38.089Z,99516.23
2019-04-06T04:09:06.869Z,99516.23
2019-04-06T04:11:35.531Z,99515.64
2019-04-06T04:14:04.256Z,99512.48
2019-04-06T04:16:32.828Z,99515.97
2019-04-06T04:19:01.530Z,99518.16
2019-04-06T04:21:30.255Z,99510.16
2019-04-06T04:23:59.342Z,99504.97
2019-04-06T04:26:28.008Z,99513.30
2019-04-06T04:28:56.588Z,99520.60
2019-04-06T04:31:25.465Z,99513.23
2019-04-06T04:33:54.081Z,99523.52
2019-04-06T04:36:22.667Z,99520.86
2019-04-06T04:38:51.473Z,99523.89
2019-04-06T04:41:20.340Z,99522.19
2019-04-06T04:43:49.107Z,99525.23
2019-04-06T04:46:17.702Z,99529.56
2019-04-06T04:48:46.420Z,99532.23
2019-04-06T04:51:15.033Z,99538.30
2019-04-06T04:53:43.784Z,99534.64
2019-04-06T04:56:12.710Z,99533.30
2019-04-06T04:58:42.614Z,99539.38
2019-04-06T05:01:11.218Z,99540.56
2019-04-06T05:03:40.099Z,99543.09
2019-04-06T05:06:08.729Z,99536.79
2019-04-06T05:08:37.344Z,99541.16
2019-04-06T05:11:06.028Z,99541.86
2019-04-06T05:13:34.627Z,99547.42
2019-04-06T05:16:14.553Z,99545.61
2019-04-06T05:18:43.630Z,99541.98
2019-04-06T05:21:12.953Z,99545.98
2019-04-06T05:23:41.643Z,99554.69
2019-04-06T05:26:10.421Z,99550.05
2019-04-06T05:28:39.429Z,99557.94
2019-04-06T05:31:08.009Z,99556.09
2019-04-06T05:33:36.589Z,99561.31
2019-04-06T05:36:05.953Z,99559.36
2019-04-06T05:38:34.827Z,99552.58
2019-04-06T05:41:03.477Z,99558.25
2019-04-06T05:43:32.419Z,99565.87
2019-04-06T05:46:01.011Z,99557.36
2019-04-06T05:48:29.614Z,99556.02
2019-04-06T05:50:58.485Z,99561.80
2019-04-06T05:53:27.092Z,99556.72
2019-04-06T05:55:55.969Z,99558.28
2019-04-06T05:58:24.714Z,99553.64
2019-04-06T06:00:53.289Z,99565.87
2019-04-06T06:03:21.890Z,99567.43
2019-04-06T06:05:51.144Z,99576.51
2019-04-06T06:08:19.931Z,99568.87
2019-04-06T06:10:48.743Z,99571.39
2019-04-06T06:13:17.327Z,99571.27
2019-04-06T06:15:45.937Z,99570.64
2019-04-06T06:18:25.387Z,99575.20
2019-04-06T06:20:44.839Z,99574.72
2019-04-06T06:23:13.425Z,99573.97
2019-04-06T06:25:42.258Z,99575.53
2019-04-06T06:28:14.990Z,99575.63
2019-04-06T06:30:41.223Z,99563.69
2019-04-06T06:33:10.044Z,99565.72
2019-04-06T06:35:38.743Z,99571.65
2019-04-06T06:38:07.436Z,99573.12
2019-04-06T06:40:36.020Z,99569.66
2019-04-06T06:43:04.749Z,99576.29
2019-04-06T06:45:33.727Z,99569.83
2019-04-06T06:48:02.374Z,99571.90
2019-04-06T06:50:31.049Z,99572.97
2019-04-06T06:52:59.658Z,99572.33
2019-04-06T06:55:28.247Z,99578.26
2019-04-06T06:57:57.595Z,99577.35
2019-04-06T07:00:26.195Z,99576.23
2019-04-06T07:02:54.869Z,99582.49
2019-04-06T07:05:23.642Z,99582.92
2019-04-06T07:07:52.474Z,99572.81
2019-04-06T07:10:21.069Z,99587.66
2019-04-06T07:12:49.648Z,99575.45
2019-04-06T07:15:18.232Z,99574.75
2019-04-06T07:17:47.091Z,99575.75
2019-04-06T07:20:16.064Z,99574.35
2019-04-06T07:22:44.628Z,99574.01
2019-04-06T07:25:13.706Z,99578.98
2019-04-06T07:27:42.740Z,99579.27
2019-04-06T07:30:12.108Z,99578.71
2019-04-06T07:32:40.886Z,99581.52
2019-04-06T07:35:09.892Z,99578.12
2019-04-06T07:37:38.681Z,99587.41
2019-04-06T07:40:10.837Z,99590.17
2019-04-06T07:42:39.372Z,99586.36
2019-04-06T07:45:09.356Z,99582.88
2019-04-06T07:47:38.092Z,99577.97
2019-04-06T07:50:07.711Z,99580.98
2019-04-06T07:52:36.422Z,99583.13
2019-04-06T07:55:07.237Z,99584.30
2019-04-06T07:57:36.171Z,99582.03
2019-04-06T08:00:08.445Z,99585.31
2019-04-06T08:02:37.233Z,99576.59
2019-04-06T08:05:07.533Z,99584.08
2019-04-06T08:07:36.694Z,99581.10
2019-04-06T08:10:06.408Z,99584.45
2019-04-06T08:12:35.206Z,99576.39
2019-04-06T08:15:05.447Z,99576.62
2019-04-06T08:17:34.091Z,99581.59
2019-04-06T08:20:03.268Z,99585.58
2019-04-06T08:22:31.914Z,99580.30
2019-04-06T08:25:00.496Z,99579.25
2019-04-06T08:27:29.274Z,99571.84
2019-04-06T08:29:58.063Z,99570.97
2019-04-06T08:32:26.782Z,99567.56
2019-04-06T08:34:55.403Z,99574.86
2019-04-06T08:37:23.983Z,99590.05
2019-04-06T08:39:52.651Z,99585.79
2019-04-06T08:42:21.191Z,99577.87
2019-04-06T08:44:50.464Z,99577.88
2019-04-06T08:47:19.638Z,99580.00
2019-04-06T08:49:48.306Z,99574.23
2019-04-06T08:52:16.961Z,99575.16
2019-04-06T08:54:47.288Z,99570.35
2019-04-06T08:57:16.474Z,99579.16
2019-04-06T08:59:45.396Z,99574.50
2019-04-06T09:02:14.197Z,99573.53
2019-04-06T09:04:44.130Z,99573.89
2019-04-06T09:07:12.745Z,99572.46
2019-04-06T09:09:42.287Z,99575.84
2019-04-06T09:12:11.275Z,99582.25
2019-04-06T09:14:39.881Z,99575.97
2019-04-06T09:17:08.628Z,99573.70
2019-04-06T09:19:41.255Z,99568.80
2019-04-06T09:22:09.861Z,99574.77
2019-04-06T09:24:40.518Z,99570.59
2019-04-06T09:27:18.398Z,99572.58
2019-04-06T09:29:47.029Z,99567.41
2019-04-06T09:32:15.714Z,99557.27
2019-04-06T09:34:52.104Z,99556.97
2019-04-06T09:37:21.019Z,99557.98
2019-04-06T09:39:50.569Z,99561.66
2019-04-06T09:42:20.006Z,99564.77
2019-04-06T09:44:50.259Z,99563.08
2019-04-06T09:47:24.009Z,99556.56
2019-04-06T09:50:10.374Z,99556.56
2019-04-06T09:52:43.721Z,99556.47
2019-04-06T09:55:42.984Z,99557.03
2019-04-06T09:58:29.418Z,99556.31
2019-04-06T10:01:01.147Z,99554.31
2019-04-06T10:03:34.420Z,99566.87
2019-04-06T10:06:16.781Z,99555.82
2019-04-06T10:08:56.604Z,99544.31
2019-04-06T10:11:28.021Z,99544.55
2019-04-06T10:13:59.680Z,99545.22
2019-04-06T10:16:35.001Z,99538.88
2019-04-06T10:19:06.575Z,99540.31
2019-04-06T10:21:48.646Z,99532.00
2019-04-06T10:24:19.738Z,99538.20
2019-04-06T10:27:03.809Z,99541.97
2019-04-06T10:29:47.611Z,99534.77
2019-04-06T10:32:18.763Z,99531.38
2019-04-06T10:34:49.029Z,99529.12
2019-04-06T10:37:21.774Z,99531.55
2019-04-06T10:40:04.032Z,99525.27
2019-04-06T10:42:38.677Z,99520.09
2019-04-06T10:45:12.465Z,99528.91
2019-04-06T10:47:58.063Z,99528.62
2019-04-06T10:50:28.481Z,99532.19
2019-04-06T10:53:01.308Z,99530.93
2019-04-06T10:55:34.447Z,99527.02
2019-04-06T10:58:15.236Z,99533.55
2019-04-06T11:01:01.870Z,99529.44
2019-04-06T11:03:38.274Z,99530.14
2019-04-06T11:06:08.497Z,99526.81
2019-04-06T11:08:41.841Z,99533.07
2019-04-06T11:11:28.802Z,99519.28
2019-04-06T11:14:05.012Z,99520.22
2019-04-06T11:16:35.233Z,99513.91
2019-04-06T11:19:05.896Z,99515.01
2019-04-06T11:21:44.868Z,99511.20
2019-04-06T11:24:26.393Z,99515.14
2019-04-06T11:26:56.840Z,99507.20
2019-04-06T11:29:29.693Z,99508.10
2019-04-06T11:32:06.860Z,99509.92
2019-04-06T11:34:48.931Z,99507.64
2019-04-06T11:37:33.319Z,99510.17
2019-04-06T11:40:06.163Z,99508.42
2019-04-06T11:42:48.417Z,99502.61
2019-04-06T11:45:18.626Z,99501.14
2019-04-06T11:47:54.760Z,99500.57
2019-04-06T11:50:25.172Z,99494.62
2019-04-06T11:53:10.310Z,99495.27
2019-04-06T11:55:40.555Z,99495.58
2019-04-06T11:58:23.007Z,99499.27
2019-04-06T12:00:56.077Z,99496.17
2019-04-06T12:03:35.295Z,99497.95
2019-04-06T12:06:20.643Z,99495.96
2019-04-06T12:09:08.869Z,99500.11
2019-04-06T12:11:39.603Z,99492.36
2019-04-06T12:14:22.187Z,99496.30
2019-04-06T12:16:58.738Z,99491.13
2019-04-06T12:19:38.303Z,99495.41
2019-04-06T12:22:20.914Z,99494.73
2019-04-06T12:24:59.940Z,99491.85
2019-04-06T12:27:46.539Z,99493.97
2019-04-06T12:30:23.378Z,99493.13
2019-04-06T12:33:10.584Z,99487.66
2019-04-06T12:35:43.571Z,99483.34
2019-04-06T12:38:30.758Z,99481.53
2019-04-06T12:41:14.001Z,99482.83
2019-04-06T12:44:00.392Z,99475.43
2019-04-06T12:46:33.513Z,99478.58
2019-04-06T12:49:06.582Z,99471.88
2019-04-06T12:51:55.510Z,99482.47
2019-04-06T12:54:44.587Z,99475.09
2019-04-06T12:57:32.077Z,99476.89
2019-04-06T13:00:03.610Z,99468.80
2019-04-06T13:02:51.093Z,99474.97
2019-04-06T13:05:33.690Z,99469.34
2019-04-06T13:08:06.711Z,99462.20
2019-04-06T13:10:38.383Z,99466.38
2019-04-06T13:13:11.456Z,99458.50
2019-04-06T13:15:57.535Z,99460.67
2019-04-06T13:18:31.571Z,99464.04
2019-04-06T13:21:07.917Z,99456.89
2019-04-06T13:23:53.216Z,99458.09
2019-04-06T13:26:33.118Z,99462.86
2019-04-06T13:29:10.361Z,99462.66
2019-04-06T13:31:53.291Z,99458.53
2019-04-06T13:34:24.278Z,99450.05
2019-04-06T13:37:00.259Z,99450.06
2019-04-06T13:39:30.828Z,99450.80
2019-04-06T13:42:03.653Z,99446.27
2019-04-06T13:44:50.982Z,99443.45
2019-04-06T13:47:21.211Z,99444.37
2019-04-06T13:50:04.390Z,99433.84
2019-04-06T13:52:49.638Z,99437.94
2019-04-06T13:55:36.336Z,99435.14
2019-04-06T13:58:07.673Z,99431.73
2019-04-06T14:00:57.819Z,99432.65
2019-04-06T14:03:28.121Z,99439.22
2019-04-06T14:06:14.321Z,99443.03
2019-04-06T14:08:48.774Z,99447.20
2019-04-06T14:11:35.378Z,99447.95
2019-04-06T14:14:18.905Z,99449.83
2019-04-06T14:16:50.603Z,99451.92
2019-04-06T14:19:20.718Z,99447.20
2019-04-06T14:22:07.566Z,99445.22
2019-04-06T14:24:53.733Z,99443.42
2019-04-06T14:27:30.161Z,99445.16
2019-04-06T14:30:07.001Z,99445.73
2019-04-06T14:32:55.134Z,99446.51
2019-04-06T14:35:25.748Z,99445.21
2019-04-06T14:38:12.304Z,99441.31
2019-04-06T14:40:54.789Z,99440.25
2019-04-06T14:43:29.062Z,99440.91
2019-04-06T14:46:00.468Z,99435.83
2019-04-06T14:48:33.794Z,99431.64
2019-04-06T14:51:19.485Z,99431.88
2019-04-06T14:53:53.681Z,99440.98
2019-04-06T14:56:40.477Z,99436.79
2019-04-06T14:59:21.424Z,99440.34
2019-04-06T15:02:10.393Z,99430.92
2019-04-06T15:04:55.733Z,99433.33
2019-04-06T15:07:34.971Z,99435.88
2019-04-06T15:10:18.730Z,99435.95
2019-04-06T15:12:49.010Z,99445.14
2019-04-06T15:15:19.898Z,99448.77
2019-04-06T15:17:56.856Z,99439.48
2019-04-06T15:20:27.107Z,99443.55
2019-04-06T15:23:13.551Z,99443.34
2019-04-06T15:25:45.929Z,99437.86
2019-04-06T15:28:34.398Z,99443.54
2019-04-06T15:31:13.905Z,99433.62
2019-04-06T15:33:47.059Z,99441.33
2019-04-06T15:36:23.205Z,99441.33
2019-04-06T15:38:54.448Z,99433.94
2019-04-06T15:41:36.615Z,99433.86
2019-04-06T15:44:07.479Z,99436.71
2019-04-06T15:46:41.461Z,99429.56
2019-04-06T15:49:14.887Z,99433.16
2019-04-06T15:52:10.602Z,99431.69
2019-04-06T15:54:48.015Z,99427.92
2019-04-06T15:57:24.512Z,99424.45
2019-04-06T15:59:54.734Z,99425.42
2019-04-06T16:02:37.138Z,99421.69
2019-04-06T16:05:09.374Z,99422.70
2019-04-06T16:07:39.604Z,99424.53
2019-04-06T16:10:10.143Z,99426.83
2019-04-06T16:12:40.365Z,99423.73
2019-04-06T16:15:11.245Z,99423.98
2019-04-06T16:17:41.477Z,99426.27
2019-04-06T16:20:14.676Z,99432.44
2019-04-06T16:22:52.937Z,99425.00
2019-04-06T16:25:30.409Z,99424.06
2019-04-06T16:28:07.045Z,99427.79
2019-04-06T16:30:42.811Z,99429.78
2019-04-06T16:33:16.161Z,99429.06
2019-04-06T16:35:55.941Z,99427.03
2019-04-06T16:38:38.832Z,99425.30
2019-04-06T16:41:15.258Z,99426.06
2019-04-06T16:43:46.160Z,99421.80
2019-04-06T16:46:31.612Z,99427.41
2019-04-06T16:49:07.793Z,99420.65
2019-04-06T16:51:54.209Z,99422.05
2019-04-06T16:54:31.472Z,99424.96
2019-04-06T16:57:20.081Z,99416.58
2019-04-06T17:00:17.079Z,99422.37
2019-04-06T17:02:55.128Z,99418.36
2019-04-06T17:05:34.941Z,99413.70
2019-04-06T17:08:14.115Z,99414.46
2019-04-06T17:10:48.307Z,99420.29
2019-04-06T17:13:28.444Z,99416.86
2019-04-06T17:16:01.824Z,99416.15
2019-04-06T17:18:48.656Z,99418.66
2019-04-06T17:21:22.098Z,99417.78
2019-04-06T17:24:10.217Z,99412.91
2019-04-06T17:26:41.136Z,99416.11
2019-04-06T17:29:17.523Z,99418.67
2019-04-06T17:31:50.832Z,99413.34
2019-04-06T17:34:36.202Z,99411.45
2019-04-06T17:37:16.056Z,99414.95
2019-04-06T17:39:46.282Z,99414.73
2019-04-06T17:42:23.443Z,99414.66
2019-04-06T17:44:54.443Z,99410.22
2019-04-06T17:47:41.199Z,99418.38
2019-04-06T17:50:20.222Z,99409.03
2019-04-06T17:53:07.203Z,99414.83
2019-04-06T17:55:43.051Z,99408.95
2019-04-06T17:58:18.939Z,99413.35
2019-04-06T18:01:01.032Z,99413.23
2019-04-06T18:03:47.812Z,99418.31
2019-04-06T18:06:22.010Z,99419.32
2019-04-06T18:08:58.108Z,99409.27
2019-04-06T18:11:28.306Z,99413.00
2019-04-06T18:13:57.551Z,99411.30
2019-04-06T18:16:30.038Z,99411.99
2019-04-06T18:18:58.785Z,99419.42
2019-04-06T18:21:27.965Z,99412.68
2019-04-06T18:23:56.599Z,99417.75
2019-04-06T18:26:26.008Z,99416.25
2019-04-06T18:28:55.141Z,99418.44
2019-04-06T18:31:33.961Z,99420.81
2019-04-06T18:34:02.755Z,99418.80
2019-04-06T18:36:51.125Z,99421.16
2019-04-06T18:39:20.699Z,99418.64
2019-04-06T18:41:49.287Z,99428.92
2019-04-06T18:44:17.977Z,99423.53
2019-04-06T18:46:46.560Z,99425.69
2019-04-06T18:49:15.139Z,99419.49
2019-04-06T18:51:43.919Z,99418.64
2019-04-06T18:54:12.997Z,99430.25
2019-04-06T18:56:42.297Z,99429.09
2019-04-06T18:59:11.437Z,99431.62
2019-04-06T19:01:40.415Z,99429.61
2019-04-06T19:04:09.089Z,99435.50
2019-04-06T19:06:38.494Z,99433.98
2019-04-06T19:09:20.711Z,99429.60
2019-04-06T19:11:39.380Z,99431.45
2019-04-06T19:14:07.998Z,99433.98
2019-04-06T19:16:36.694Z,99431.13
2019-04-06T19:19:06.101Z,99433.66
2019-04-06T19:21:35.042Z,99439.38
2019-04-06T19:24:03.658Z,99435.17
2019-04-06T19:26:33.861Z,99433.67
2019-04-06T19:29:02.797Z,99436.36
2019-04-06T19:31:31.746Z,99441.75
2019-04-06T19:34:00.518Z,99435.84
2019-04-06T19:36:29.534Z,99439.72
2019-04-06T19:38:58.212Z,99434.15
2019-04-06T19:41:27.155Z,99438.70
2019-04-06T19:43:55.727Z,99437.36
2019-04-06T19:46:24.747Z,99441.58
2019-04-06T19:48:53.395Z,99441.38
2019-04-06T19:51:21.984Z,99438.70
2019-04-06T19:53:51.158Z,99439.39
2019-04-06T19:56:20.093Z,99438.70
2019-04-06T19:58:49.287Z,99446.44
2019-04-06T20:01:17.958Z,99443.07
2019-04-06T20:03:46.696Z,99444.75
2019-04-06T20:06:15.536Z,99453.97
2019-04-06T20:08:44.183Z,99445.90
2019-04-06T20:11:12.861Z,99444.55
2019-04-06T20:13:41.673Z,99442.72
2019-04-06T20:16:10.887Z,99435.30
2019-04-06T20:18:40.152Z,99440.02
2019-04-06T20:21:09.799Z,99442.72
2019-04-06T20:23:39.039Z,99444.40
2019-04-06T20:26:09.097Z,99446.73
2019-04-06T20:28:39.025Z,99440.84
2019-04-06T20:31:08.225Z,99442.87
2019-04-06T20:33:46.798Z,99444.05
2019-04-06T20:36:07.380Z,99447.24
2019-04-06T20:38:36.034Z,99445.73
2019-04-06T20:41:05.245Z,99444.02
2019-04-06T20:43:34.228Z,99438.64
2019-04-06T20:46:03.050Z,99441.16
2019-04-06T20:48:31.704Z,99443.85
2019-04-06T20:51:00.416Z,99436.28
2019-04-06T20:53:28.996Z,99443.52
2019-04-06T20:55:57.702Z,99448.19
2019-04-06T20:58:26.322Z,99445.33
2019-04-06T21:00:55.476Z,99444.84
2019-04-06T21:03:24.331Z,99444.67
2019-04-06T21:05:53.089Z,99445.98
2019-04-06T21:08:21.828Z,99448.50
2019-04-06T21:10:50.900Z,99448.83
2019-04-06T21:13:20.139Z,99451.52
2019-04-06T21:15:48.928Z,99444.80
2019-04-06T21:18:17.807Z,99443.11
2019-04-06T21:20:48.045Z,99446.46
2019-04-06T21:23:17.203Z,99447.66
2019-04-06T21:25:46.480Z,99439.59
2019-04-06T21:28:15.452Z,99446.31
2019-04-06T21:30:44.341Z,99438.59
2019-04-06T21:33:13.231Z,99446.34
2019-04-06T21:35:42.434Z,99442.97
2019-04-06T21:38:12.179Z,99446.69
2019-04-06T21:40:41.099Z,99445.02
2019-04-06T21:43:09.999Z,99444.34
2019-04-06T21:45:39.325Z,99445.00
2019-04-06T21:48:08.013Z,99441.32
2019-04-06T21:50:36.687Z,99449.53
2019-04-06T21:53:05.274Z,99440.30
2019-04-06T21:55:33.914Z,99448.02
2019-04-06T21:58:03.026Z,99447.34
2019-04-06T22:00:50.062Z,99452.06
2019-04-06T22:03:19.037Z,99450.04
2019-04-06T22:05:47.936Z,99448.88
2019-04-06T22:08:16.539Z,99443.33
2019-04-06T22:10:45.876Z,99446.66
2019-04-06T22:13:15.999Z,99444.97
2019-04-06T22:15:45.049Z,99446.14
2019-04-06T22:18:14.195Z,99444.95
2019-04-06T22:20:43.757Z,99447.14
2019-04-06T22:23:13.105Z,99448.12
2019-04-06T22:25:42.178Z,99449.30
2019-04-06T22:28:10.941Z,99442.76
2019-04-06T22:30:40.512Z,99444.25
2019-04-06T22:33:09.273Z,99443.25
2019-04-06T22:35:39.004Z,99442.58
2019-04-06T22:38:08.119Z,99444.25
2019-04-06T22:40:37.063Z,99438.17
2019-04-06T22:43:05.886Z,99441.04
2019-04-06T22:45:35.048Z,99445.56
2019-04-06T22:48:03.737Z,99433.97
2019-04-06T22:50:32.693Z,99436.52
2019-04-06T22:53:01.353Z,99432.30
2019-04-06T22:55:29.957Z,99429.79
2019-04-06T22:57:58.773Z,99433.50
2019-04-06T23:00:32.109Z,99433.67
2019-04-06T23:03:05.427Z,99428.15
2019-04-06T23:05:47.970Z,99431.16
2019-04-06T23:08:16.830Z,99426.98
2019-04-06T23:10:45.688Z,99428.50
2019-04-06T23:13:15.040Z,99433.20
2019-04-06T23:15:43.959Z,99433.70
2019-04-06T23:18:12.848Z,99428.84
2019-04-06T23:20:41.553Z,99433.55
2019-04-06T23:23:10.371Z,99428.70
2019-04-06T23:25:39.612Z,99431.20
2019-04-06T23:28:08.257Z,99425.16
2019-04-06T23:30:37.562Z,99426.84
2019-04-06T23:33:06.638Z,99426.34
2019-04-06T23:35:35.768Z,99423.16
2019-04-06T23:38:04.321Z,99422.80
2019-04-06T23:40:33.040Z,99425.84
2019-04-06T23:43:02.817Z,99420.47
2019-04-06T23:45:31.931Z,99418.80
2019-04-06T23:48:01.605Z,99415.42
2019-04-06T23:50:31.440Z,99421.16
2019-04-06T23:53:00.706Z,99414.44
2019-04-06T23:55:30.018Z,99408.56
2019-04-06T23:57:59.529Z,99416.80
